Hinchley Wood, United Kingdom
Current Conditions -  °F | °C
As of 4:20 PM on Thursday 29 Jan 2015 (Local Time) from EGLL Reporting Station
Rain Showers Rain Showers  
Wind Chill: 28°   Ceiling: Unl
Heat Index: 37°   Visibility: 6mi
Dew Point: 34°   Wind: 16mph
Humidity: 87%   Direction: 270°W
Pressure: 28.85"   Gusts: NA
Location:  51.37°N, 0.34°W
Report Text: EGLL 291620Z 27014KT 9999 -SHRA SCT018 03/01 Q0977 NOSIG
Loading
Personal Weather Stations






























Interactive Weather Map New forecast layout! Learn more

10-Day Weather Forecast

Advertisements
Track Severe Weather on mobile